createdAt,value
2019-03-01T00:01:13.837Z,9.10
2019-03-01T00:06:28.169Z,8.53
2019-03-01T00:11:33.418Z,13.87
2019-03-01T00:17:00.516Z,12.70
2019-03-01T00:22:21.565Z,12.07
2019-03-01T00:27:48.409Z,13.10
2019-03-01T00:32:50.861Z,14.50
2019-03-01T00:38:20.894Z,9.80
2019-03-01T00:43:29.036Z,13.53
2019-03-01T00:48:31.548Z,13.73
2019-03-01T00:53:34.018Z,13.37
2019-03-01T00:58:36.485Z,11.83
2019-03-01T01:03:38.947Z,15.30
2019-03-01T01:08:41.980Z,16.07
2019-03-01T01:13:44.443Z,14.07
2019-03-01T01:18:46.893Z,14.63
2019-03-01T01:23:49.353Z,13.80
2019-03-01T01:28:51.831Z,10.33
2019-03-01T01:33:54.281Z,11.40
2019-03-01T01:38:56.734Z,13.00
2019-03-01T01:43:59.198Z,10.80
2019-03-01T01:49:01.651Z,8.47
2019-03-01T01:54:04.112Z,12.40
2019-03-01T01:59:06.591Z,13.60
2019-03-01T02:04:09.040Z,7.47
2019-03-01T02:09:17.259Z,11.33
2019-03-01T02:14:19.723Z,8.77
2019-03-01T02:19:22.169Z,8.60
2019-03-01T02:24:24.626Z,8.90
2019-03-01T02:29:27.090Z,11.13
2019-03-01T02:34:29.558Z,12.07
2019-03-01T02:39:32.016Z,8.20
2019-03-01T02:44:34.475Z,11.00
2019-03-01T02:49:36.944Z,6.63
2019-03-01T02:54:39.402Z,7.57
2019-03-01T02:59:41.854Z,7.93
2019-03-01T03:04:44.322Z,8.60
2019-03-01T03:09:46.784Z,5.57
2019-03-01T03:14:49.228Z,6.63
2019-03-01T03:19:51.700Z,6.57
2019-03-01T03:24:54.153Z,6.50
2019-03-01T03:29:56.606Z,6.97
2019-03-01T03:34:59.077Z,8.47
2019-03-01T03:40:01.547Z,5.20
2019-03-01T03:45:04.019Z,4.10
2019-03-01T03:50:06.490Z,4.90
2019-03-01T03:55:08.936Z,7.37
2019-03-01T04:00:20.300Z,5.77
2019-03-01T04:05:22.749Z,8.13
2019-03-01T04:10:25.203Z,5.07
2019-03-01T04:15:27.676Z,6.03
2019-03-01T04:20:30.177Z,4.97
2019-03-01T04:25:32.576Z,5.17
2019-03-01T04:30:35.024Z,9.70
2019-03-01T04:35:37.502Z,6.93
2019-03-01T04:40:39.943Z,7.90
2019-03-01T04:45:42.411Z,8.83
2019-03-01T04:50:44.870Z,10.50
2019-03-01T04:55:47.339Z,10.90
2019-03-01T05:00:49.784Z,4.60
2019-03-01T05:05:52.245Z,7.43
2019-03-01T05:10:54.707Z,8.17
2019-03-01T05:15:57.171Z,7.73
2019-03-01T05:20:59.635Z,10.37
2019-03-01T05:26:02.081Z,6.80
2019-03-01T05:31:04.536Z,9.93
2019-03-01T05:36:07.001Z,7.60
2019-03-01T05:41:09.471Z,9.63
2019-03-01T05:46:11.931Z,5.50
2019-03-01T05:51:14.411Z,6.07
2019-03-01T05:56:16.872Z,4.53
2019-03-01T06:01:28.057Z,7.67
2019-03-01T06:06:42.326Z,4.40
2019-03-01T06:12:02.941Z,4.17
2019-03-01T06:17:26.886Z,7.10
2019-03-01T06:22:38.373Z,5.03
2019-03-01T06:27:59.310Z,8.43
2019-03-01T06:33:07.691Z,7.83
2019-03-01T06:38:22.165Z,9.53
2019-03-01T06:43:27.567Z,15.47
2019-03-01T06:48:30.034Z,7.20
2019-03-01T06:53:32.494Z,10.20
2019-03-01T06:58:34.958Z,6.57
2019-03-01T07:03:37.412Z,8.90
2019-03-01T07:08:39.867Z,7.63
2019-03-01T07:13:42.340Z,16.10
2019-03-01T07:18:44.793Z,8.87
2019-03-01T07:23:47.255Z,9.70
2019-03-01T07:28:49.707Z,8.90
2019-03-01T07:33:52.200Z,11.57
2019-03-01T07:38:54.649Z,16.03
2019-03-01T07:43:57.104Z,9.80
2019-03-01T07:48:59.587Z,9.27
2019-03-01T07:54:02.048Z,9.70
2019-03-01T07:59:04.491Z,8.70
2019-03-01T08:04:06.954Z,6.60
2019-03-01T08:09:12.451Z,9.70
2019-03-01T08:14:14.922Z,10.23
2019-03-01T08:19:22.333Z,6.43
2019-03-01T08:24:19.829Z,5.63
2019-03-01T08:29:22.317Z,6.53
2019-03-01T08:34:24.784Z,6.97
2019-03-01T08:39:27.241Z,10.20
2019-03-01T08:44:29.712Z,4.00
2019-03-01T08:49:32.186Z,4.33
2019-03-01T08:54:34.656Z,3.87
2019-03-01T08:59:37.122Z,3.17
2019-03-01T09:04:39.583Z,2.87
2019-03-01T09:09:42.058Z,2.53
2019-03-01T09:14:44.529Z,8.30
2019-03-01T09:19:46.992Z,5.77
2019-03-01T09:24:49.467Z,5.03
2019-03-01T09:29:51.908Z,6.37
2019-03-01T09:34:54.377Z,3.60
2019-03-01T09:40:05.212Z,3.60
2019-03-01T09:44:59.318Z,3.33
2019-03-01T09:50:01.789Z,2.97
2019-03-01T09:55:04.257Z,12.50
2019-03-01T10:00:12.705Z,3.03
2019-03-01T10:05:15.174Z,2.00
2019-03-01T10:10:20.369Z,3.47
2019-03-01T10:15:22.863Z,4.93
2019-03-01T10:20:30.330Z,4.40
2019-03-01T10:25:32.792Z,2.77
2019-03-01T10:30:35.254Z,2.43
2019-03-01T10:35:37.758Z,2.03
2019-03-01T10:40:40.161Z,1.83
2019-03-01T10:45:42.609Z,2.23
2019-03-01T10:50:45.090Z,2.30
2019-03-01T10:55:47.551Z,2.00
2019-03-01T11:00:50.081Z,2.63
2019-03-01T11:05:53.072Z,3.57
2019-03-01T11:10:55.070Z,3.73
2019-03-01T11:15:57.524Z,5.00
2019-03-01T11:20:59.994Z,4.47
2019-03-01T11:31:03.758Z,3.67
2019-03-01T11:36:06.225Z,4.47
2019-03-01T11:41:08.680Z,6.67
2019-03-01T11:46:11.142Z,8.80
2019-03-01T11:51:13.595Z,8.30
2019-03-01T11:56:16.053Z,5.20
2019-03-01T12:01:18.509Z,4.87
2019-03-01T12:06:20.968Z,5.17
2019-03-01T12:11:23.425Z,4.47
2019-03-01T12:16:25.885Z,5.67
2019-03-01T12:21:28.342Z,6.03
2019-03-01T12:26:30.812Z,6.33
2019-03-01T12:31:33.280Z,10.10
2019-03-01T12:36:35.792Z,11.03
2019-03-01T12:41:38.251Z,11.70
2019-03-01T12:46:40.725Z,14.37
2019-03-01T12:51:43.189Z,19.40
2019-03-01T12:56:45.657Z,23.03
2019-03-01T13:01:48.119Z,7.60
2019-03-01T13:06:50.588Z,10.33
2019-03-01T13:11:53.052Z,7.43
2019-03-01T13:16:58.462Z,9.77
2019-03-01T13:21:58.010Z,21.30
2019-03-01T13:27:00.636Z,15.10
2019-03-01T13:32:03.110Z,9.60
2019-03-01T13:37:05.571Z,11.27
2019-03-01T13:42:10.298Z,8.40
2019-03-01T13:47:10.502Z,9.13
2019-03-01T13:52:14.758Z,24.10
2019-03-01T13:57:15.461Z,9.57
2019-03-01T14:02:17.912Z,18.90
2019-03-01T14:07:20.390Z,19.13
2019-03-01T14:12:22.862Z,16.60
2019-03-01T14:17:25.740Z,18.83
2019-03-01T14:22:27.805Z,19.43
2019-03-01T14:27:30.436Z,20.07
2019-03-01T14:32:32.736Z,21.63
2019-03-01T14:37:35.229Z,23.33
2019-03-01T14:42:37.691Z,27.83
2019-03-01T14:47:40.168Z,36.97
2019-03-01T14:52:42.652Z,24.73
2019-03-01T14:57:46.199Z,30.97
2019-03-01T15:02:47.596Z,38.00
2019-03-01T15:07:50.180Z,27.90
2019-03-01T15:12:53.883Z,38.33
2019-03-01T15:17:56.983Z,50.20
2019-03-01T15:22:57.643Z,40.80
2019-03-01T15:28:00.117Z,30.77
2019-03-01T15:33:02.588Z,29.23
2019-03-01T15:38:05.080Z,30.47
2019-03-01T15:43:09.110Z,46.60
2019-03-01T15:48:10.042Z,34.37
2019-03-01T15:53:14.434Z,43.23
2019-03-01T15:58:15.038Z,52.57
2019-03-01T16:03:17.495Z,30.53
2019-03-01T16:08:19.968Z,43.13
2019-03-01T16:13:22.456Z,49.80
2019-03-01T16:18:24.947Z,58.17
2019-03-01T16:23:30.052Z,54.33
2019-03-01T16:28:31.103Z,59.27
2019-03-01T16:33:32.379Z,67.87
2019-03-01T16:38:40.976Z,61.67
2019-03-01T16:43:37.411Z,67.47
2019-03-01T16:48:39.962Z,90.60
2019-03-01T16:53:42.427Z,90.43
2019-03-01T16:58:44.975Z,95.63
2019-03-01T17:03:49.626Z,108.57
2019-03-01T17:08:50.016Z,107.13
2019-03-01T17:13:52.476Z,125.40
2019-03-01T17:18:54.949Z,108.00
2019-03-01T17:23:57.445Z,121.50
2019-03-01T17:29:03.170Z,129.90
2019-03-01T17:34:04.375Z,131.87
2019-03-01T17:39:04.888Z,126.10
2019-03-01T17:44:08.517Z,151.53
2019-03-01T17:49:09.847Z,121.30
2019-03-01T17:54:12.315Z,117.77
2019-03-01T17:59:14.787Z,98.13
2019-03-01T18:04:17.254Z,104.07
2019-03-01T18:09:19.725Z,94.93
2019-03-01T18:14:22.203Z,123.43
2019-03-01T18:19:26.763Z,110.47
2019-03-01T18:24:27.160Z,109.10
2019-03-01T18:29:29.645Z,93.40
2019-03-01T18:34:35.642Z,81.43
2019-03-01T18:39:34.594Z,72.90
2019-03-01T18:44:37.054Z,83.53
2019-03-01T18:49:39.538Z,113.43
2019-03-01T18:54:43.030Z,106.00
2019-03-01T18:59:44.472Z,102.20
2019-03-01T19:04:46.965Z,98.57
2019-03-01T19:09:52.143Z,84.03
2019-03-01T19:14:51.980Z,103.00
2019-03-01T19:19:54.469Z,85.90
2019-03-01T19:24:56.951Z,96.63
2019-03-01T19:29:59.422Z,91.90
2019-03-01T19:35:01.892Z,83.33
2019-03-01T19:40:07.861Z,96.43
2019-03-01T19:45:09.669Z,87.70
2019-03-01T19:50:12.136Z,98.63
2019-03-01T19:55:14.615Z,95.23
2019-03-01T20:00:28.994Z,116.50
2019-03-01T20:05:33.029Z,89.80
2019-03-01T20:10:33.956Z,97.87
2019-03-01T20:15:36.441Z,95.50
2019-03-01T20:20:38.943Z,73.20
2019-03-01T20:25:41.433Z,85.77
2019-03-01T20:30:43.932Z,68.53
2019-03-01T20:35:46.482Z,90.97
2019-03-01T20:40:48.981Z,73.23
2019-03-01T20:45:51.499Z,80.03
2019-03-01T20:50:54.032Z,63.07
2019-03-01T20:55:56.492Z,62.60
2019-03-01T21:01:01.933Z,70.20
2019-03-01T21:06:04.324Z,61.30
2019-03-01T21:11:03.962Z,55.60
2019-03-01T21:16:06.475Z,60.43
2019-03-01T21:21:08.943Z,63.17
2019-03-01T21:26:12.063Z,66.77
2019-03-01T21:31:14.233Z,54.93
2019-03-01T21:36:16.724Z,57.17
2019-03-01T21:41:19.216Z,57.73
2019-03-01T21:46:21.706Z,69.57
2019-03-01T21:51:24.174Z,63.70
2019-03-01T21:56:26.641Z,61.00
2019-03-01T22:01:29.190Z,68.93
2019-03-01T22:06:31.676Z,60.13
2019-03-01T22:11:34.152Z,50.47
2019-03-01T22:16:39.256Z,59.03
2019-03-01T22:21:39.099Z,49.53
2019-03-01T22:26:41.617Z,54.17
2019-03-01T22:31:44.124Z,48.90
2019-03-01T22:36:49.448Z,51.03
2019-03-01T22:41:49.150Z,51.30
2019-03-01T22:46:51.619Z,38.37
2019-03-01T22:51:54.094Z,38.03
2019-03-01T22:56:56.583Z,35.23
2019-03-01T23:01:59.071Z,39.03
2019-03-01T23:07:01.551Z,35.93
2019-03-01T23:12:04.659Z,35.57
2019-03-01T23:17:06.482Z,40.40
2019-03-01T23:22:10.940Z,37.60
2019-03-01T23:27:11.516Z,33.57
2019-03-01T23:32:15.456Z,38.63
2019-03-01T23:37:16.405Z,40.53
2019-03-01T23:42:20.869Z,42.57
2019-03-01T23:47:21.372Z,41.43
2019-03-01T23:52:23.819Z,43.97
2019-03-01T23:57:26.288Z,41.43
